createdAt,value
2018-03-20T00:00:39.496Z,57.71
2018-03-20T00:01:39.457Z,57.90
2018-03-20T00:03:35.399Z,58.00
2018-03-20T00:04:35.358Z,58.09
2018-03-20T00:06:31.270Z,58.65
2018-03-20T00:07:31.802Z,59.03
2018-03-20T00:09:25.718Z,57.81
2018-03-20T00:10:25.690Z,58.09
2018-03-20T00:12:21.651Z,59.79
2018-03-20T00:13:21.607Z,59.70
2018-03-20T00:15:17.571Z,59.98
2018-03-20T00:16:18.040Z,59.89
2018-03-20T00:18:14.015Z,60.74
2018-03-20T00:19:13.440Z,61.21
2018-03-20T00:21:09.880Z,61.21
2018-03-20T00:22:09.338Z,60.93
2018-03-20T00:24:05.286Z,60.93
2018-03-20T00:25:05.237Z,60.55
2018-03-20T00:27:01.150Z,60.46
2018-03-20T00:28:01.150Z,60.46
2018-03-20T00:29:57.110Z,60.46
2018-03-20T00:30:57.079Z,61.11
2018-03-20T00:32:53.044Z,61.58
2018-03-20T00:33:52.996Z,61.68
2018-03-20T00:35:48.916Z,61.11
2018-03-20T00:36:48.887Z,58.84
2018-03-20T00:38:43.344Z,55.16
2018-03-20T00:39:43.830Z,53.94
2018-03-20T00:41:47.720Z,53.37
2018-03-20T00:42:47.195Z,53.37
2018-03-20T00:44:42.133Z,52.99
2018-03-20T00:45:41.591Z,53.30
2018-03-20T00:47:37.515Z,53.27
2018-03-20T00:48:37.502Z,53.20
2018-03-20T00:50:33.464Z,56.86
2018-03-20T00:51:33.418Z,58.50
2018-03-20T00:53:27.819Z,57.71
2018-03-20T00:54:27.823Z,55.73
2018-03-20T00:57:59.030Z,58.75
2018-03-20T00:58:59.029Z,59.89
2018-03-20T01:00:54.975Z,59.70
2018-03-20T01:01:53.974Z,56.77
2018-03-20T01:03:49.903Z,54.97
2018-03-20T01:04:49.358Z,54.22
2018-03-20T01:06:45.802Z,56.48
2018-03-20T01:07:45.280Z,57.90
2018-03-20T01:09:41.187Z,58.00
2018-03-20T01:10:41.183Z,58.28
2018-03-20T01:12:37.128Z,59.60
2018-03-20T01:13:37.616Z,59.70
2018-03-20T01:15:31.554Z,59.98
2018-03-20T01:17:47.972Z,57.15
2018-03-20T01:18:47.422Z,55.82
2018-03-20T01:20:43.362Z,55.92
2018-03-20T01:21:43.858Z,55.16
2018-03-20T01:23:39.229Z,55.07
2018-03-20T01:24:39.231Z,55.44
2018-03-20T01:26:36.186Z,56.01
2018-03-20T01:27:35.152Z,56.39
2018-03-20T01:29:30.069Z,55.82
2018-03-20T01:30:31.080Z,55.35
2018-03-20T01:32:26.017Z,56.20
2018-03-20T01:33:26.003Z,55.82
2018-03-20T01:35:22.528Z,56.48
2018-03-20T01:36:21.381Z,56.30
2018-03-20T01:38:17.835Z,56.77
2018-03-20T01:39:17.818Z,58.09
2018-03-20T01:41:10.664Z,58.65
2018-03-20T01:42:10.663Z,58.75
2018-03-20T01:44:07.625Z,60.27
2018-03-20T01:45:06.588Z,58.65
2018-03-20T01:47:02.535Z,59.89
2018-03-20T01:48:01.530Z,60.93
2018-03-20T01:49:57.943Z,61.68
2018-03-20T01:50:56.914Z,62.25
2018-03-20T01:52:52.864Z,63.57
2018-03-20T01:53:52.808Z,64.89
2018-03-20T01:55:49.270Z,65.52
2018-03-20T01:56:48.718Z,65.71
2018-03-20T01:58:44.161Z,66.59
2018-03-20T01:59:43.654Z,66.41
2018-03-20T02:01:38.033Z,66.41
2018-03-20T02:02:37.511Z,65.84
2018-03-20T02:04:34.433Z,64.89
2018-03-20T02:05:33.935Z,64.32
2018-03-20T02:07:29.853Z,64.61
2018-03-20T02:08:29.318Z,64.70
2018-03-20T02:10:25.243Z,65.27
2018-03-20T02:11:25.213Z,65.74
2018-03-20T02:13:21.136Z,65.05
2018-03-20T02:14:21.124Z,64.89
2018-03-20T02:16:17.558Z,63.76
2018-03-20T02:17:17.556Z,63.10
2018-03-20T02:19:12.936Z,64.01
2018-03-20T02:20:12.903Z,62.72
2018-03-20T02:22:08.821Z,60.46
2018-03-20T02:23:08.798Z,60.17
2018-03-20T02:25:04.757Z,58.84
2018-03-20T02:26:05.251Z,58.65
2018-03-20T02:27:59.165Z,58.84
2018-03-20T02:28:59.137Z,58.47
2018-03-20T02:30:55.058Z,58.94
2018-03-20T02:31:55.060Z,58.94
2018-03-20T02:33:48.505Z,58.75
2018-03-20T02:34:48.491Z,59.13
2018-03-20T02:36:44.428Z,59.79
2018-03-20T02:37:44.399Z,59.79
2018-03-20T02:39:40.347Z,59.98
2018-03-20T02:40:40.292Z,60.17
2018-03-20T02:42:34.702Z,60.46
2018-03-20T02:43:34.707Z,60.74
2018-03-20T02:45:30.653Z,61.21
2018-03-20T02:46:30.635Z,60.93
2018-03-20T02:48:26.582Z,61.77
2018-03-20T02:49:26.522Z,61.58
2018-03-20T02:51:20.434Z,62.72
2018-03-20T02:52:19.902Z,62.06
2018-03-20T02:54:14.308Z,62.25
2018-03-20T02:55:14.301Z,62.62
2018-03-20T02:57:08.725Z,62.53
2018-03-20T02:58:08.709Z,62.06
2018-03-20T03:00:04.646Z,61.87
2018-03-20T03:01:04.616Z,62.62
2018-03-20T03:03:00.526Z,62.53
2018-03-20T03:04:00.534Z,62.25
2018-03-20T03:05:56.459Z,62.44
2018-03-20T03:06:56.452Z,62.62
2018-03-20T03:08:52.876Z,63.10
2018-03-20T03:09:52.321Z,63.29
2018-03-20T03:11:48.252Z,63.29
2018-03-20T03:12:48.235Z,63.38
2018-03-20T03:14:43.162Z,63.57
2018-03-20T03:15:42.648Z,63.85
2018-03-20T03:17:40.088Z,63.57
2018-03-20T03:18:39.088Z,63.38
2018-03-20T03:20:34.469Z,63.38
2018-03-20T03:21:34.467Z,64.14
2018-03-20T03:23:30.905Z,63.10
2018-03-20T03:24:30.379Z,63.48
2018-03-20T03:26:26.351Z,62.53
2018-03-20T03:27:26.325Z,62.15
2018-03-20T03:29:22.754Z,61.77
2018-03-20T03:30:22.235Z,62.34
2018-03-20T03:32:18.677Z,61.61
2018-03-20T03:33:18.140Z,61.61
2018-03-20T03:35:14.105Z,61.68
2018-03-20T03:36:14.056Z,61.30
2018-03-20T03:38:10.505Z,60.96
2018-03-20T03:39:09.963Z,60.93
2018-03-20T03:41:06.900Z,61.33
2018-03-20T03:42:06.398Z,61.80
2018-03-20T03:44:01.831Z,61.71
2018-03-20T03:45:02.310Z,60.96
2018-03-20T03:46:57.730Z,61.24
2018-03-20T03:47:58.235Z,60.67
2018-03-20T03:49:52.107Z,61.52
2018-03-20T03:50:52.103Z,60.86
2018-03-20T03:52:49.048Z,60.96
2018-03-20T03:53:48.101Z,61.24
2018-03-20T03:55:45.045Z,61.43
2018-03-20T03:56:44.015Z,62.18
2018-03-20T03:58:38.952Z,60.86
2018-03-20T03:59:38.398Z,61.71
2018-03-20T04:01:34.343Z,60.86
2018-03-20T04:02:34.299Z,60.96
2018-03-20T04:04:27.750Z,61.61
2018-03-20T04:05:27.718Z,61.71
2018-03-20T04:07:23.685Z,62.47
2018-03-20T04:08:23.646Z,61.90
2018-03-20T04:10:18.581Z,62.37
2018-03-20T04:11:18.069Z,62.66
2018-03-20T04:13:12.999Z,62.56
2018-03-20T04:14:13.005Z,62.66
2018-03-20T04:16:08.928Z,61.71
2018-03-20T04:17:08.399Z,62.18
2018-03-20T04:19:03.333Z,61.80
2018-03-20T04:20:03.346Z,62.37
2018-03-20T04:21:58.752Z,62.47
2018-03-20T04:22:59.217Z,62.18
2018-03-20T04:24:54.632Z,61.99
2018-03-20T04:25:56.050Z,62.09
2018-03-20T04:27:48.044Z,61.90
2018-03-20T04:28:47.991Z,62.18
2018-03-20T04:30:44.937Z,61.61
2018-03-20T04:31:43.915Z,62.66
2018-03-20T04:33:39.832Z,62.47
2018-03-20T04:34:40.354Z,61.99
2018-03-20T04:36:34.772Z,62.18
2018-03-20T04:37:34.224Z,62.47
2018-03-20T04:39:31.684Z,62.56
2018-03-20T04:40:30.148Z,62.28
2018-03-20T04:42:26.064Z,62.75
2018-03-20T04:43:26.053Z,63.04
2018-03-20T04:45:20.987Z,62.75
2018-03-20T04:46:20.994Z,62.37
2018-03-20T04:48:14.938Z,62.47
2018-03-20T04:49:14.845Z,62.94
2018-03-20T04:51:14.288Z,62.75
2018-03-20T04:52:12.755Z,62.28
2018-03-20T04:54:09.218Z,62.94
2018-03-20T04:55:08.704Z,62.28
2018-03-20T04:57:03.138Z,62.09
2018-03-20T04:58:03.092Z,62.50
2018-03-20T04:59:59.037Z,61.99
2018-03-20T05:00:58.994Z,61.65
2018-03-20T05:02:56.452Z,61.93
2018-03-20T05:03:54.900Z,62.28
2018-03-20T05:05:49.374Z,63.07
2018-03-20T05:06:49.856Z,62.31
2018-03-20T05:08:45.202Z,62.21
2018-03-20T05:09:45.205Z,61.46
2018-03-20T05:11:41.649Z,61.46
2018-03-20T05:12:41.126Z,61.55
2018-03-20T05:14:37.073Z,62.50
2018-03-20T05:15:37.039Z,62.12
2018-03-20T05:17:33.511Z,63.26
2018-03-20T05:18:32.974Z,62.78
2018-03-20T05:20:28.897Z,63.45
2018-03-20T05:21:28.899Z,63.73
2018-03-20T05:23:24.860Z,63.35
2018-03-20T05:24:24.798Z,63.35
2018-03-20T05:26:20.768Z,64.20
2018-03-20T05:27:21.243Z,63.26
2018-03-20T05:29:15.651Z,62.78
2018-03-20T05:30:15.088Z,62.69
2018-03-20T05:32:11.519Z,63.26
2018-03-20T05:33:11.017Z,62.88
2018-03-20T05:35:07.951Z,62.97
2018-03-20T05:36:06.932Z,62.88
2018-03-20T05:38:02.894Z,62.88
2018-03-20T05:39:02.845Z,63.07
2018-03-20T05:40:58.749Z,63.82
2018-03-20T05:41:59.270Z,64.77
2018-03-20T05:43:53.227Z,65.62
2018-03-20T05:44:53.684Z,66.28
2018-03-20T05:46:49.116Z,68.65
2018-03-20T05:47:49.091Z,69.40
2018-03-20T05:49:45.014Z,70.63
2018-03-20T05:50:45.936Z,71.48
2018-03-20T05:52:40.941Z,72.67
2018-03-20T05:53:40.887Z,72.96
2018-03-20T05:55:37.321Z,74.38
2018-03-20T05:56:36.807Z,74.76
2018-03-20T05:58:30.192Z,76.07
2018-03-20T05:59:30.746Z,75.70
2018-03-20T06:01:28.132Z,76.07
2018-03-20T06:02:26.622Z,76.45
2018-03-20T06:04:23.023Z,78.06
2018-03-20T06:05:23.456Z,78.63
2018-03-20T06:07:15.929Z,78.72
2018-03-20T06:08:15.412Z,79.76
2018-03-20T06:10:09.878Z,80.14
2018-03-20T06:11:10.353Z,80.24
2018-03-20T06:13:13.751Z,81.09
2018-03-20T06:14:14.263Z,81.18
2018-03-20T06:16:09.659Z,81.84
2018-03-20T06:17:09.639Z,82.31
2018-03-20T06:19:05.596Z,83.07
2018-03-20T06:20:05.521Z,83.26
2018-03-20T06:21:59.927Z,82.79
2018-03-20T06:22:59.918Z,83.54
2018-03-20T06:24:56.870Z,83.64
2018-03-20T06:25:57.286Z,84.20
2018-03-20T06:27:51.734Z,83.73
2018-03-20T06:28:52.270Z,83.73
2018-03-20T06:30:47.684Z,84.01
2018-03-20T06:31:47.654Z,84.20
2018-03-20T06:33:44.096Z,84.01
2018-03-20T06:34:43.574Z,84.58
2018-03-20T06:36:41.014Z,84.39
2018-03-20T06:37:39.485Z,84.68
2018-03-20T06:39:33.922Z,84.49
2018-03-20T06:40:33.904Z,85.05
2018-03-20T06:42:28.329Z,84.77
2018-03-20T06:43:28.846Z,84.77
2018-03-20T06:45:24.226Z,84.96
2018-03-20T06:46:24.227Z,84.30
2018-03-20T06:48:21.164Z,85.15
2018-03-20T06:49:20.094Z,85.43
2018-03-20T06:51:16.061Z,86.04
2018-03-20T06:52:16.564Z,85.72
2018-03-20T06:54:12.448Z,85.34
2018-03-20T06:55:12.449Z,85.53
2018-03-20T06:57:08.889Z,85.81
2018-03-20T06:58:08.410Z,85.91
2018-03-20T07:00:04.799Z,86.38
2018-03-20T07:01:05.297Z,86.47
2018-03-20T07:03:00.211Z,86.57
2018-03-20T07:03:59.664Z,86.57
2018-03-20T07:05:56.626Z,86.38
2018-03-20T07:06:57.039Z,86.33
2018-03-20T07:08:51.533Z,86.66
2018-03-20T07:09:51.475Z,86.66
2018-03-20T07:11:47.432Z,86.19
2018-03-20T07:12:47.923Z,86.52
2018-03-20T07:14:43.336Z,86.61
2018-03-20T07:15:43.293Z,86.38
2018-03-20T07:17:39.225Z,86.61
2018-03-20T07:18:39.748Z,86.33
2018-03-20T07:20:35.149Z,86.23
2018-03-20T07:21:35.118Z,86.33
2018-03-20T07:23:28.561Z,86.90
2018-03-20T07:24:28.512Z,86.04
2018-03-20T07:26:24.454Z,86.04
2018-03-20T07:27:24.424Z,86.52
2018-03-20T07:29:20.377Z,86.23
2018-03-20T07:30:20.311Z,86.71
2018-03-20T07:32:17.756Z,86.71
2018-03-20T07:33:16.223Z,86.52
2018-03-20T07:35:12.672Z,86.52
2018-03-20T07:36:12.152Z,86.71
2018-03-20T07:38:08.078Z,86.71
2018-03-20T07:39:08.057Z,86.71
2018-03-20T07:41:03.985Z,86.52
2018-03-20T07:42:03.975Z,86.23
2018-03-20T07:44:00.906Z,86.42
2018-03-20T07:44:59.877Z,86.33
2018-03-20T07:46:56.343Z,86.23
2018-03-20T07:47:55.798Z,86.04
2018-03-20T07:49:51.752Z,86.14
2018-03-20T07:50:52.234Z,85.95
2018-03-20T07:52:47.613Z,86.04
2018-03-20T07:53:47.630Z,86.04
2018-03-20T07:55:43.567Z,86.37
2018-03-20T07:56:44.090Z,85.71
2018-03-20T07:58:50.479Z,85.80
2018-03-20T07:59:51.402Z,85.71
2018-03-20T08:01:46.120Z,85.99
2018-03-20T08:02:45.607Z,85.52
2018-03-20T08:04:41.560Z,85.52
2018-03-20T08:05:41.536Z,85.42
2018-03-20T08:07:35.984Z,84.77
2018-03-20T08:08:35.950Z,84.77
2018-03-20T08:10:33.405Z,84.77
2018-03-20T08:11:31.966Z,84.86
2018-03-20T08:13:26.410Z,84.39
2018-03-20T08:14:26.910Z,84.58
2018-03-20T08:16:19.886Z,84.77
2018-03-20T08:17:19.813Z,84.95
2018-03-20T08:19:13.277Z,85.33
2018-03-20T08:20:13.188Z,85.05
2018-03-20T08:22:07.685Z,85.24
2018-03-20T08:23:07.642Z,85.52
2018-03-20T08:25:02.065Z,85.42
2018-03-20T08:26:02.043Z,85.42
2018-03-20T08:27:56.473Z,85.52
2018-03-20T08:28:56.987Z,85.52
2018-03-20T08:30:51.417Z,85.24
2018-03-20T08:31:51.413Z,85.42
2018-03-20T08:33:44.344Z,85.99
2018-03-20T08:34:44.305Z,86.09
2018-03-20T08:36:40.272Z,86.09
2018-03-20T08:37:40.215Z,86.04
2018-03-20T08:39:33.619Z,85.66
2018-03-20T08:40:34.164Z,85.38
2018-03-20T08:42:28.566Z,85.57
2018-03-20T08:43:28.047Z,85.57
2018-03-20T08:45:22.492Z,85.75
2018-03-20T08:46:22.991Z,86.04
2018-03-20T08:48:18.337Z,85.85
2018-03-20T08:49:18.897Z,85.85
2018-03-20T08:51:11.766Z,85.75
2018-03-20T08:52:11.753Z,85.85
2018-03-20T08:54:07.681Z,86.04
2018-03-20T08:55:07.668Z,85.57
2018-03-20T08:57:02.136Z,85.57
2018-03-20T08:58:02.083Z,85.57
2018-03-20T08:59:56.506Z,85.19
2018-03-20T09:00:56.521Z,85.28
2018-03-20T09:02:50.950Z,84.90
2018-03-20T09:03:49.937Z,84.81
2018-03-20T09:05:44.350Z,85.04
2018-03-20T09:06:44.868Z,84.75
2018-03-20T09:08:38.751Z,83.90
2018-03-20T09:09:38.754Z,84.09
2018-03-20T09:11:33.234Z,84.09
2018-03-20T09:12:33.685Z,83.52
2018-03-20T09:14:27.609Z,83.71
2018-03-20T09:15:28.094Z,82.62
2018-03-20T09:17:22.092Z,82.24
2018-03-20T09:18:22.512Z,82.71
2018-03-20T09:20:16.395Z,81.95
2018-03-20T09:21:16.938Z,81.95
2018-03-20T09:23:10.854Z,81.95
2018-03-20T09:24:10.820Z,81.38
2018-03-20T09:26:05.227Z,81.38
2018-03-20T09:27:05.241Z,81.95
2018-03-20T09:29:00.172Z,81.67
2018-03-20T09:29:59.616Z,81.86
2018-03-20T09:31:54.032Z,81.38
2018-03-20T09:32:54.037Z,81.48
2018-03-20T09:34:48.458Z,81.14
2018-03-20T09:35:48.466Z,80.86
2018-03-20T09:37:42.873Z,80.10
2018-03-20T09:38:42.868Z,80.19
2018-03-20T09:40:37.320Z,80.34
2018-03-20T09:41:37.307Z,80.53
2018-03-20T09:43:31.746Z,80.91
2018-03-20T09:44:31.702Z,81.48
2018-03-20T09:46:25.685Z,81.10
2018-03-20T09:47:26.080Z,81.76
2018-03-20T09:49:19.645Z,81.48
2018-03-20T09:50:19.543Z,81.20
2018-03-20T09:52:14.488Z,81.20
2018-03-20T09:53:13.985Z,81.10
2018-03-20T09:55:08.936Z,81.14
2018-03-20T09:56:08.409Z,81.14
2018-03-20T09:58:02.836Z,80.57
2018-03-20T09:59:03.359Z,81.52
2018-03-20T10:00:56.277Z,80.57
2018-03-20T10:01:56.262Z,79.44
2018-03-20T10:03:49.703Z,78.49
2018-03-20T10:04:49.689Z,78.39
2018-03-20T10:06:45.620Z,77.25
2018-03-20T10:07:45.610Z,77.16
2018-03-20T10:09:40.018Z,76.31
2018-03-20T10:10:40.550Z,76.50
2018-03-20T10:12:33.454Z,76.34
2018-03-20T10:13:33.443Z,76.54
2018-03-20T10:15:29.389Z,75.96
2018-03-20T10:16:29.373Z,75.78
2018-03-20T10:18:25.325Z,75.49
2018-03-20T10:19:24.323Z,75.11
2018-03-20T10:21:18.258Z,74.54
2018-03-20T10:22:18.721Z,74.54
2018-03-20T10:24:14.152Z,74.35
2018-03-20T10:25:13.155Z,74.35
2018-03-20T10:27:08.581Z,73.12
2018-03-20T10:28:07.061Z,72.74
2018-03-20T10:30:01.487Z,71.98
2018-03-20T10:31:01.503Z,72.08
2018-03-20T10:32:55.936Z,72.17
2018-03-20T10:33:55.931Z,71.80
2018-03-20T10:35:49.357Z,71.32
2018-03-20T10:36:49.864Z,71.32
2018-03-20T10:38:43.748Z,71.70
2018-03-20T10:39:43.753Z,71.89
2018-03-20T10:41:38.205Z,71.70
2018-03-20T10:42:38.191Z,72.08
2018-03-20T10:44:32.645Z,69.90
2018-03-20T10:45:32.602Z,69.61
2018-03-20T10:47:28.563Z,68.98
2018-03-20T10:48:27.039Z,68.98
2018-03-20T10:50:21.485Z,68.41
2018-03-20T10:51:20.454Z,67.94
2018-03-20T10:53:14.875Z,68.51
2018-03-20T10:54:14.868Z,67.37
2018-03-20T10:56:08.319Z,67.27
2018-03-20T10:57:09.251Z,67.27
2018-03-20T10:59:02.778Z,65.95
2018-03-20T11:00:02.707Z,65.09
2018-03-20T11:01:59.065Z,64.81
2018-03-20T11:02:57.118Z,64.43
2018-03-20T11:04:52.058Z,61.49
2018-03-20T11:05:51.561Z,60.82
2018-03-20T11:07:44.978Z,60.16
2018-03-20T11:08:45.491Z,59.02
2018-03-20T11:10:39.407Z,59.14
2018-03-20T11:11:39.399Z,58.26
2018-03-20T11:13:33.863Z,59.21
2018-03-20T11:14:34.358Z,59.91
2018-03-20T11:16:27.240Z,59.24
2018-03-20T11:17:27.767Z,58.10
2018-03-20T11:19:24.197Z,54.97
2018-03-20T11:20:23.264Z,55.82
2018-03-20T11:22:17.608Z,54.68
2018-03-20T11:23:16.618Z,54.39
2018-03-20T11:25:11.981Z,53.92
2018-03-20T11:26:11.035Z,54.11
2018-03-20T11:28:07.002Z,52.02
2018-03-20T11:29:07.492Z,51.86
2018-03-20T11:31:01.398Z,50.79
2018-03-20T11:32:01.396Z,50.41
2018-03-20T11:33:55.833Z,51.39
2018-03-20T11:34:55.819Z,51.20
2018-03-20T11:36:52.699Z,50.34
2018-03-20T11:37:52.270Z,51.29
2018-03-20T11:39:46.174Z,50.22
2018-03-20T11:40:46.158Z,51.07
2018-03-20T11:42:39.615Z,51.48
2018-03-20T11:43:40.108Z,51.48
2018-03-20T11:45:33.012Z,51.29
2018-03-20T11:46:33.548Z,51.57
2018-03-20T11:48:27.466Z,52.43
2018-03-20T11:49:27.433Z,52.24
2018-03-20T11:51:22.383Z,51.01
2018-03-20T11:52:21.831Z,50.43
2018-03-20T11:54:16.777Z,49.20
2018-03-20T11:55:16.255Z,50.05
2018-03-20T11:57:10.721Z,48.54
2018-03-20T11:58:10.690Z,48.35
2018-03-20T12:00:05.140Z,46.54
2018-03-20T12:01:05.636Z,46.45
2018-03-20T12:03:01.033Z,46.35
2018-03-20T12:04:01.568Z,45.97
2018-03-20T12:05:54.512Z,44.73
2018-03-20T12:06:54.981Z,44.93
2018-03-20T12:08:48.426Z,45.12
2018-03-20T12:09:47.875Z,44.93
2018-03-20T12:11:42.306Z,44.35
2018-03-20T12:12:42.281Z,43.79
2018-03-20T12:14:36.241Z,43.69
2018-03-20T12:15:35.753Z,43.41
2018-03-20T12:17:31.193Z,42.93
2018-03-20T12:18:30.681Z,42.93
2018-03-20T12:20:24.595Z,43.52
2018-03-20T12:21:23.607Z,43.62
2018-03-20T12:23:18.093Z,42.76
2018-03-20T12:24:18.037Z,42.74
2018-03-20T12:26:12.984Z,43.52
2018-03-20T12:27:12.468Z,43.33
2018-03-20T12:29:08.368Z,43.52
2018-03-20T12:30:08.384Z,41.62
2018-03-20T12:32:01.788Z,41.43
2018-03-20T12:33:01.795Z,40.67
2018-03-20T12:34:55.740Z,40.67
2018-03-20T12:35:55.739Z,40.58
2018-03-20T12:37:50.185Z,39.62
2018-03-20T12:38:49.644Z,39.15
2018-03-20T12:40:44.069Z,39.15
2018-03-20T12:41:44.072Z,39.25
2018-03-20T12:43:38.524Z,38.68
2018-03-20T12:44:39.013Z,38.68
2018-03-20T12:46:34.512Z,38.51
2018-03-20T12:47:34.944Z,38.31
2018-03-20T12:49:28.872Z,38.29
2018-03-20T12:50:28.856Z,38.20
2018-03-20T12:52:23.807Z,38.29
2018-03-20T12:53:23.811Z,38.39
2018-03-20T12:55:17.757Z,38.79
2018-03-20T12:56:18.752Z,38.51
2018-03-20T12:58:12.706Z,38.41
2018-03-20T12:59:12.685Z,38.41
2018-03-20T13:01:07.638Z,37.65
2018-03-20T13:02:07.141Z,37.37
2018-03-20T13:04:00.580Z,37.18
2018-03-20T13:05:00.078Z,37.08
2018-03-20T13:06:57.040Z,37.18
2018-03-20T13:07:56.053Z,36.98
2018-03-20T13:09:52.484Z,36.04
2018-03-20T13:10:51.936Z,35.37
2018-03-20T13:12:46.413Z,34.61
2018-03-20T13:13:46.885Z,34.23
2018-03-20T13:15:41.319Z,33.94
2018-03-20T13:16:41.373Z,34.61
2018-03-20T13:18:34.205Z,34.23
2018-03-20T13:19:34.755Z,33.47
2018-03-20T13:21:33.654Z,32.04
2018-03-20T13:22:32.147Z,31.47
2018-03-20T13:24:30.095Z,32.23
2018-03-20T13:25:28.071Z,32.42
2018-03-20T13:27:24.011Z,32.51
2018-03-20T13:28:25.529Z,32.14
2018-03-20T13:30:21.476Z,32.42
2018-03-20T13:31:20.476Z,32.32
2018-03-20T13:33:17.914Z,32.06
2018-03-20T13:34:17.431Z,30.82
2018-03-20T13:36:11.868Z,30.14
2018-03-20T13:37:12.335Z,30.06
2018-03-20T13:39:06.271Z,30.71
2018-03-20T13:40:05.212Z,30.23
2018-03-20T13:41:59.650Z,29.19
2018-03-20T13:42:59.669Z,29.09
2018-03-20T13:44:54.625Z,29.68
2018-03-20T13:45:55.113Z,29.75
2018-03-20T13:47:50.069Z,29.66
2018-03-20T13:48:50.566Z,29.96
2018-03-20T13:50:45.990Z,30.33
2018-03-20T13:51:44.469Z,30.04
2018-03-20T13:53:38.427Z,30.06
2018-03-20T13:54:37.903Z,30.06
2018-03-20T13:56:34.369Z,31.10
2018-03-20T13:57:33.842Z,30.06
2018-03-20T13:59:30.306Z,29.49
2018-03-20T14:00:29.752Z,28.82
2018-03-20T14:02:24.710Z,28.72
2018-03-20T14:03:24.707Z,28.82
2018-03-20T14:05:19.144Z,28.63
2018-03-20T14:06:18.619Z,28.25
2018-03-20T14:08:15.080Z,26.82
2018-03-20T14:09:13.064Z,26.64
2018-03-20T14:11:07.525Z,26.35
2018-03-20T14:12:06.493Z,26.06
2018-03-20T14:14:01.929Z,26.35
2018-03-20T14:15:01.433Z,25.40
2018-03-20T14:16:57.364Z,25.68
2018-03-20T14:17:55.855Z,25.96
2018-03-20T14:19:51.794Z,27.01
2018-03-20T14:20:51.274Z,26.82
2018-03-20T14:22:47.227Z,27.49
2018-03-20T14:23:47.210Z,27.49
2018-03-20T14:25:43.155Z,27.30
2018-03-20T14:26:41.694Z,26.92
2018-03-20T14:28:37.562Z,27.01
2018-03-20T14:29:38.097Z,26.25
2018-03-20T14:31:31.006Z,25.78
2018-03-20T14:32:30.988Z,25.11
2018-03-20T14:34:28.442Z,25.11
2018-03-20T14:36:41.209Z,25.96
2018-03-20T14:37:41.206Z,25.96
2018-03-20T14:39:35.649Z,25.96
2018-03-20T14:40:35.175Z,25.87
2018-03-20T14:42:29.092Z,25.49
2018-03-20T14:43:29.056Z,25.78
2018-03-20T14:45:23.483Z,25.02
2018-03-20T14:46:23.496Z,25.30
2018-03-20T14:48:17.931Z,23.97
2018-03-20T14:49:17.916Z,24.63
2018-03-20T14:51:11.875Z,25.02
2018-03-20T14:52:11.354Z,24.82
2018-03-20T14:54:05.828Z,25.02
2018-03-20T14:55:05.816Z,25.68
2018-03-20T14:57:00.759Z,26.35
2018-03-20T14:58:00.237Z,26.16
2018-03-20T14:59:56.697Z,25.68
2018-03-20T15:00:56.163Z,25.78
2018-03-20T15:02:49.615Z,26.06
2018-03-20T15:03:49.591Z,26.35
2018-03-20T15:05:43.050Z,26.54
2018-03-20T15:06:43.544Z,26.44
2018-03-20T15:08:39.013Z,25.78
2018-03-20T15:09:39.504Z,25.87
2018-03-20T15:11:34.393Z,25.49
2018-03-20T15:12:33.378Z,25.78
2018-03-20T15:14:28.353Z,25.68
2018-03-20T15:15:27.835Z,25.11
2018-03-20T15:17:22.769Z,24.92
2018-03-20T15:18:22.785Z,25.21
2018-03-20T15:20:16.735Z,25.02
2018-03-20T15:21:18.145Z,25.11
2018-03-20T15:23:11.157Z,25.30
2018-03-20T15:24:11.115Z,25.21
2018-03-20T15:26:06.575Z,25.11
2018-03-20T15:27:05.563Z,24.63
2018-03-20T15:29:00.045Z,23.88
2018-03-20T15:29:59.990Z,23.97
2018-03-20T15:31:53.433Z,24.07
2018-03-20T15:32:53.396Z,23.86
2018-03-20T15:34:49.352Z,24.05
2018-03-20T15:35:49.338Z,24.24
2018-03-20T15:37:44.279Z,24.05
2018-03-20T15:38:43.764Z,24.34
2018-03-20T15:40:37.726Z,24.26
2018-03-20T15:41:37.189Z,24.24
2018-03-20T15:43:34.143Z,25.01
2018-03-20T15:44:33.664Z,25.29
2018-03-20T15:46:29.100Z,25.10
2018-03-20T15:47:28.093Z,25.68
2018-03-20T15:49:20.986Z,25.38
2018-03-20T15:50:21.007Z,25.20
2018-03-20T15:52:14.990Z,26.05
2018-03-20T15:53:14.433Z,25.76
2018-03-20T15:55:09.888Z,26.34
2018-03-20T15:56:09.380Z,26.05
2018-03-20T15:58:02.306Z,25.57
2018-03-20T15:59:03.801Z,25.38
2018-03-20T16:00:56.781Z,25.67
2018-03-20T16:01:57.258Z,25.76
2018-03-20T16:03:53.209Z,26.34
2018-03-20T16:04:51.699Z,26.14
2018-03-20T16:06:46.655Z,26.05
2018-03-20T16:07:46.115Z,25.95
2018-03-20T16:09:40.561Z,25.67
2018-03-20T16:10:40.552Z,25.38
2018-03-20T16:12:36.471Z,23.86
2018-03-20T16:13:34.976Z,23.48
2018-03-20T16:15:28.928Z,22.91
2018-03-20T16:16:28.884Z,23.67
2018-03-20T16:18:22.319Z,23.86
2018-03-20T16:19:22.299Z,23.96
2018-03-20T16:21:16.773Z,23.86
2018-03-20T16:22:17.298Z,24.05
2018-03-20T16:24:12.665Z,23.96
2018-03-20T16:25:13.186Z,24.43
2018-03-20T16:27:09.145Z,24.91
2018-03-20T16:28:09.604Z,25.10
2018-03-20T16:30:03.092Z,24.05
2018-03-20T16:31:03.620Z,23.96
2018-03-20T16:32:58.032Z,23.96
2018-03-20T16:33:57.492Z,24.15
2018-03-20T16:35:51.917Z,22.80
2018-03-20T16:36:51.917Z,22.14
2018-03-20T16:38:47.371Z,22.24
2018-03-20T16:39:46.307Z,22.53
2018-03-20T16:41:40.784Z,23.19
2018-03-20T16:42:41.324Z,23.47
2018-03-20T16:44:36.210Z,23.94
2018-03-20T16:45:35.230Z,23.94
2018-03-20T16:47:30.658Z,24.61
2018-03-20T16:48:29.665Z,24.23
2018-03-20T16:50:24.128Z,25.46
2018-03-20T16:51:23.090Z,24.80
2018-03-20T16:53:18.466Z,24.80
2018-03-20T16:54:17.537Z,24.80
2018-03-20T16:56:11.004Z,24.99
2018-03-20T16:57:10.982Z,25.09
2018-03-20T16:59:06.869Z,26.23
2018-03-20T17:00:06.866Z,26.23
2018-03-20T17:02:03.318Z,26.23
2018-03-20T17:03:03.324Z,26.51
2018-03-20T17:04:57.740Z,27.08
2018-03-20T17:05:57.747Z,27.27
2018-03-20T17:07:50.660Z,26.61
2018-03-20T17:08:50.678Z,26.70
2018-03-20T17:10:48.642Z,27.08
2018-03-20T17:11:48.604Z,27.37
2018-03-20T17:13:44.559Z,26.51
2018-03-20T17:14:44.586Z,25.94
2018-03-20T17:16:39.065Z,26.23
2018-03-20T17:17:39.027Z,26.04
2018-03-20T17:19:33.482Z,26.13
2018-03-20T17:20:34.433Z,26.42
2018-03-20T17:22:29.399Z,26.97
2018-03-20T17:23:27.894Z,26.13
2018-03-20T17:25:25.846Z,25.55
2018-03-20T17:26:23.849Z,26.12
2018-03-20T17:28:19.767Z,24.98
2018-03-20T17:29:19.751Z,25.17
2018-03-20T17:31:15.108Z,25.64
2018-03-20T17:32:14.690Z,25.64
2018-03-20T17:34:07.592Z,24.79
2018-03-20T17:35:07.600Z,24.79
2018-03-20T17:37:02.054Z,25.07
2018-03-20T17:38:01.032Z,25.07
2018-03-20T17:39:56.980Z,24.98
2018-03-20T17:40:56.965Z,25.07
2018-03-20T17:42:51.425Z,24.98
2018-03-20T17:43:51.394Z,24.88
2018-03-20T17:45:46.353Z,23.93
2018-03-20T17:46:45.805Z,24.12
2018-03-20T17:48:53.686Z,24.32
2018-03-20T17:49:53.673Z,24.60
2018-03-20T17:51:49.662Z,24.88
2018-03-20T17:52:50.102Z,24.98
2018-03-20T17:54:45.534Z,25.84
2018-03-20T17:55:46.063Z,25.55
2018-03-20T17:57:43.487Z,26.12
2018-03-20T17:58:41.467Z,25.92
2018-03-20T18:00:37.420Z,26.20
2018-03-20T18:01:37.961Z,26.48
2018-03-20T18:03:33.357Z,27.44
2018-03-20T18:04:33.334Z,27.53
2018-03-20T18:06:29.353Z,27.91
2018-03-20T18:07:29.283Z,28.00
2018-03-20T18:09:24.707Z,28.67
2018-03-20T18:10:23.683Z,28.67
2018-03-20T18:12:19.661Z,28.29
2018-03-20T18:13:20.143Z,27.72
2018-03-20T18:15:14.090Z,27.81
2018-03-20T18:16:14.563Z,28.38
2018-03-20T18:18:10.015Z,29.05
2018-03-20T18:19:09.995Z,28.77
2018-03-20T18:21:04.399Z,28.57
2018-03-20T18:22:04.933Z,28.57
2018-03-20T18:23:58.875Z,29.05
2018-03-20T18:24:59.339Z,29.33
2018-03-20T18:26:53.303Z,29.81
2018-03-20T18:27:53.281Z,29.71
2018-03-20T18:29:47.223Z,29.98
2018-03-20T18:30:47.227Z,30.55
2018-03-20T18:32:40.653Z,30.83
2018-03-20T18:33:40.130Z,30.93
2018-03-20T18:35:35.650Z,31.60
2018-03-20T18:36:34.586Z,31.69
2018-03-20T18:38:28.980Z,31.88
2018-03-20T18:39:28.974Z,31.31
2018-03-20T18:41:23.414Z,31.50
2018-03-20T18:42:23.419Z,31.41
2018-03-20T18:44:17.885Z,31.98
2018-03-20T18:45:17.812Z,32.26
2018-03-20T18:47:12.296Z,32.07
2018-03-20T18:48:12.255Z,32.35
2018-03-20T18:50:07.197Z,32.54